createdAt,value
2018-12-13T00:00:38.954Z,6.63
2018-12-13T00:02:40.911Z,8.17
2018-12-13T00:04:42.866Z,7.77
2018-12-13T00:06:44.855Z,7.62
2018-12-13T00:08:46.903Z,7.50
2018-12-13T00:10:48.865Z,7.30
2018-12-13T00:12:50.922Z,8.95
2018-12-13T00:14:52.871Z,8.57
2018-12-13T00:16:54.826Z,9.10
2018-12-13T00:18:56.785Z,9.50
2018-12-13T00:20:58.738Z,8.85
2018-12-13T00:23:00.702Z,8.90
2018-12-13T00:25:02.661Z,9.63
2018-12-13T00:27:04.724Z,9.68
2018-12-13T00:29:06.683Z,10.13
2018-12-13T00:31:08.646Z,9.83
2018-12-13T00:33:10.598Z,10.23
2018-12-13T00:35:12.550Z,10.63
2018-12-13T00:37:14.506Z,9.50
2018-12-13T00:39:16.467Z,9.88
2018-12-13T00:41:18.434Z,10.30
2018-12-13T00:43:20.398Z,10.00
2018-12-13T00:45:22.366Z,10.72
2018-12-13T00:47:24.322Z,9.73
2018-12-13T00:49:26.295Z,11.90
2018-12-13T00:51:28.247Z,11.35
2018-12-13T00:53:30.226Z,10.72
2018-12-13T00:55:32.175Z,9.68
2018-12-13T00:57:34.124Z,10.45
2018-12-13T00:59:36.074Z,10.38
2018-12-13T01:01:38.027Z,10.37
2018-12-13T01:03:39.986Z,10.25
2018-12-13T01:05:41.943Z,10.63
2018-12-13T01:07:43.903Z,9.58
2018-12-13T01:09:45.870Z,9.40
2018-12-13T01:11:47.830Z,10.80
2018-12-13T01:13:49.793Z,10.20
2018-12-13T01:15:51.735Z,9.80
2018-12-13T01:17:53.694Z,9.98
2018-12-13T01:19:55.654Z,9.75
2018-12-13T01:21:57.604Z,10.03
2018-12-13T01:23:59.554Z,9.18
2018-12-13T01:26:01.511Z,9.95
2018-12-13T01:28:03.470Z,10.95
2018-12-13T01:30:05.431Z,10.30
2018-12-13T01:32:07.382Z,9.88
2018-12-13T01:34:09.346Z,10.53
2018-12-13T01:36:11.299Z,10.60
2018-12-13T01:38:13.247Z,11.28
2018-12-13T01:40:15.218Z,12.53
2018-12-13T01:42:17.175Z,12.13
2018-12-13T01:44:19.138Z,12.50
2018-12-13T01:46:21.106Z,11.38
2018-12-13T01:48:23.058Z,12.45
2018-12-13T01:50:25.019Z,12.95
2018-12-13T01:52:26.991Z,12.33
2018-12-13T01:54:29.047Z,12.65
2018-12-13T01:56:31.002Z,13.62
2018-12-13T01:58:32.966Z,13.08
2018-12-13T02:00:34.926Z,14.50
2018-12-13T02:02:36.887Z,14.23
2018-12-13T02:04:38.851Z,14.68
2018-12-13T02:06:40.802Z,15.70
2018-12-13T02:08:42.759Z,15.10
2018-12-13T02:10:44.730Z,15.10
2018-12-13T02:12:46.687Z,16.80
2018-12-13T02:14:48.642Z,14.70
2018-12-13T02:16:50.602Z,14.95
2018-12-13T02:18:53.211Z,16.15
2018-12-13T02:20:55.167Z,15.90
2018-12-13T02:22:57.122Z,16.52
2018-12-13T02:24:59.082Z,17.80
2018-12-13T02:27:01.034Z,16.02
2018-12-13T02:29:02.995Z,16.48
2018-12-13T02:31:04.968Z,16.65
2018-12-13T02:33:07.019Z,18.27
2018-12-13T02:35:08.967Z,19.67
2018-12-13T02:37:10.914Z,18.85
2018-12-13T02:39:12.871Z,18.37
2018-12-13T02:41:14.838Z,18.75
2018-12-13T02:43:16.793Z,18.48
2018-12-13T02:45:18.859Z,18.75
2018-12-13T02:47:20.795Z,19.42
2018-12-13T02:49:22.749Z,21.87
2018-12-13T02:51:24.814Z,20.27
2018-12-13T02:53:26.779Z,19.55
2018-12-13T02:55:28.851Z,21.23
2018-12-13T02:57:30.831Z,20.30
2018-12-13T02:59:32.886Z,20.70
2018-12-13T03:01:34.840Z,21.15
2018-12-13T03:03:36.898Z,21.65
2018-12-13T03:05:38.860Z,20.85
2018-12-13T03:07:40.924Z,20.57
2018-12-13T03:09:42.868Z,19.73
2018-12-13T03:11:44.939Z,18.92
2018-12-13T03:13:46.900Z,21.37
2018-12-13T03:15:48.959Z,21.60
2018-12-13T03:17:50.920Z,21.15
2018-12-13T03:19:52.871Z,21.12
2018-12-13T03:21:54.846Z,19.75
2018-12-13T03:23:56.926Z,20.50
2018-12-13T03:25:58.883Z,20.40
2018-12-13T03:28:00.864Z,21.93
2018-12-13T03:30:03.302Z,21.60
2018-12-13T03:32:05.260Z,21.73
2018-12-13T03:34:07.255Z,21.17
2018-12-13T03:36:09.223Z,21.65
2018-12-13T03:38:11.284Z,21.00
2018-12-13T03:40:13.243Z,20.15
2018-12-13T03:42:15.210Z,20.62
2018-12-13T03:44:17.167Z,20.43
2018-12-13T03:46:19.134Z,23.32
2018-12-13T03:48:21.086Z,22.30
2018-12-13T03:50:23.042Z,22.95
2018-12-13T03:52:25.002Z,21.62
2018-12-13T03:54:26.962Z,21.70
2018-12-13T03:56:28.932Z,38.60
2018-12-13T03:58:31.025Z,49.60
2018-12-13T04:00:33.092Z,36.88
2018-12-13T04:02:35.147Z,28.02
2018-12-13T04:04:37.086Z,23.25
2018-12-13T04:06:39.060Z,22.62
2018-12-13T04:08:41.127Z,23.12
2018-12-13T04:10:43.178Z,20.77
2018-12-13T04:12:45.138Z,22.80
2018-12-13T04:14:47.094Z,22.20
2018-12-13T04:16:49.048Z,21.40
2018-12-13T04:18:50.982Z,22.52
2018-12-13T04:20:52.939Z,22.40
2018-12-13T04:22:55.002Z,21.48
2018-12-13T04:24:56.964Z,21.75
2018-12-13T04:26:58.930Z,24.10
2018-12-13T04:29:00.991Z,22.10
2018-12-13T04:31:02.942Z,21.75
2018-12-13T04:33:04.899Z,27.90
2018-12-13T04:35:06.847Z,37.50
2018-12-13T04:37:08.815Z,26.17
2018-12-13T04:39:10.768Z,44.10
2018-12-13T04:41:12.730Z,50.63
2018-12-13T04:43:14.687Z,36.03
2018-12-13T04:45:16.619Z,25.83
2018-12-13T04:47:18.575Z,24.67
2018-12-13T04:49:20.514Z,21.13
2018-12-13T04:51:22.506Z,25.50
2018-12-13T04:53:24.456Z,20.53
2018-12-13T04:55:26.402Z,21.83
2018-12-13T04:57:28.359Z,22.00
2018-12-13T04:59:30.303Z,19.40
2018-12-13T05:01:32.283Z,20.95
2018-12-13T05:03:34.245Z,20.37
2018-12-13T05:05:36.194Z,23.00
2018-12-13T05:07:41.742Z,21.10
2018-12-13T05:09:42.322Z,19.63
2018-12-13T05:11:44.282Z,17.90
2018-12-13T05:13:46.234Z,17.37
2018-12-13T05:15:48.183Z,18.83
2018-12-13T05:17:50.147Z,16.93
2018-12-13T05:19:52.100Z,18.20
2018-12-13T05:21:54.059Z,17.87
2018-12-13T05:23:56.034Z,18.93
2018-12-13T05:25:58.098Z,19.10
2018-12-13T05:28:00.051Z,17.67
2018-12-13T05:30:02.008Z,21.20
2018-12-13T05:32:04.413Z,16.63
2018-12-13T05:34:06.362Z,15.13
2018-12-13T05:36:08.310Z,21.33
2018-12-13T05:38:10.274Z,17.50
2018-12-13T05:40:12.222Z,19.70
2018-12-13T05:42:14.174Z,16.10
2018-12-13T05:44:20.582Z,16.90
2018-12-13T05:46:22.524Z,15.60
2018-12-13T05:48:24.470Z,16.60
2018-12-13T05:50:26.406Z,37.00
2018-12-13T05:52:28.358Z,21.10
2018-12-13T05:54:30.318Z,20.37
2018-12-13T05:56:32.263Z,18.30
2018-12-13T05:58:34.214Z,14.93
2018-12-13T06:00:36.259Z,16.07
2018-12-13T06:02:38.205Z,16.87
2018-12-13T06:04:40.174Z,15.30
2018-12-13T06:06:42.127Z,15.13
2018-12-13T06:08:44.090Z,21.03
2018-12-13T06:10:46.040Z,17.07
2018-12-13T06:12:48.002Z,15.93
2018-12-13T06:14:50.056Z,18.97
2018-12-13T06:16:52.123Z,13.57
2018-12-13T06:18:54.074Z,12.90
2018-12-13T06:20:56.019Z,12.87
2018-12-13T06:22:57.966Z,13.80
2018-12-13T06:24:59.918Z,13.70
2018-12-13T06:27:01.867Z,14.57
2018-12-13T06:29:03.818Z,13.20
2018-12-13T06:31:05.771Z,12.77
2018-12-13T06:33:07.723Z,15.93
2018-12-13T06:35:09.666Z,14.27
2018-12-13T06:37:11.617Z,15.27
2018-12-13T06:39:13.574Z,14.27
2018-12-13T06:41:15.634Z,15.27
2018-12-13T06:43:17.579Z,17.13
2018-12-13T06:45:19.531Z,15.40
2018-12-13T06:47:21.478Z,15.60
2018-12-13T06:49:23.546Z,20.80
2018-12-13T06:51:25.529Z,28.10
2018-12-13T06:53:27.482Z,14.33
2018-12-13T06:55:29.444Z,15.23
2018-12-13T06:57:31.509Z,13.77
2018-12-13T06:59:33.563Z,15.10
2018-12-13T07:01:35.531Z,14.90
2018-12-13T07:03:37.479Z,21.15
2018-12-13T07:05:39.427Z,15.43
2018-12-13T07:07:41.379Z,13.15
2018-12-13T07:09:43.343Z,17.90
2018-12-13T07:11:45.303Z,14.10
2018-12-13T07:13:47.249Z,20.33
2018-12-13T07:15:49.187Z,19.30
2018-12-13T07:17:51.143Z,18.80
2018-12-13T07:19:53.110Z,18.23
2018-12-13T07:21:55.061Z,13.30
2018-12-13T07:23:57.018Z,19.62
2018-12-13T07:25:58.982Z,18.40
2018-12-13T07:28:00.962Z,14.70
2018-12-13T07:30:04.202Z,20.30
2018-12-13T07:32:06.151Z,17.20
2018-12-13T07:34:08.102Z,21.73
2018-12-13T07:36:10.050Z,12.03
2018-12-13T07:38:14.361Z,16.77
2018-12-13T07:40:15.982Z,19.05
2018-12-13T07:42:17.942Z,14.73
2018-12-13T07:44:19.891Z,12.93
2018-12-13T07:46:21.851Z,13.70
2018-12-13T07:48:23.805Z,13.33
2018-12-13T07:50:25.763Z,13.18
2018-12-13T07:52:27.715Z,10.90
2018-12-13T07:54:29.672Z,11.95
2018-12-13T07:56:31.636Z,13.17
2018-12-13T07:58:33.594Z,13.27
2018-12-13T08:00:35.554Z,13.88
2018-12-13T08:02:37.507Z,12.07
2018-12-13T08:04:39.479Z,16.30
2018-12-13T08:06:41.431Z,17.10
2018-12-13T08:08:43.486Z,13.27
2018-12-13T08:10:45.454Z,15.00
2018-12-13T08:12:47.403Z,14.27
2018-12-13T08:14:49.442Z,12.30
2018-12-13T08:16:51.404Z,12.78
2018-12-13T08:18:53.471Z,11.20
2018-12-13T08:20:55.423Z,12.50
2018-12-13T08:22:57.359Z,11.50
2018-12-13T08:24:59.314Z,11.20
2018-12-13T08:27:01.266Z,10.87
2018-12-13T08:29:03.225Z,12.78
2018-12-13T08:31:05.194Z,9.98
2018-12-13T08:33:07.146Z,13.05
2018-12-13T08:35:09.102Z,10.30
2018-12-13T08:37:11.067Z,11.80
2018-12-13T08:39:13.019Z,14.50
2018-12-13T08:41:14.985Z,13.38
2018-12-13T08:43:17.031Z,12.30
2018-12-13T08:45:18.978Z,12.33
2018-12-13T08:47:20.934Z,11.87
2018-12-13T08:49:22.990Z,9.47
2018-12-13T08:51:24.967Z,11.40
2018-12-13T08:53:26.922Z,12.90
2018-12-13T08:55:28.875Z,9.80
2018-12-13T08:57:30.834Z,11.63
2018-12-13T08:59:32.795Z,11.90
2018-12-13T09:01:34.754Z,11.70
2018-12-13T09:03:37.170Z,9.40
2018-12-13T09:05:39.290Z,14.93
2018-12-13T09:07:41.538Z,10.67
2018-12-13T09:09:43.487Z,13.10
2018-12-13T09:11:45.465Z,13.60
2018-12-13T09:13:47.418Z,12.53
2018-12-13T09:15:49.367Z,11.87
2018-12-13T09:17:51.345Z,16.87
2018-12-13T09:19:53.306Z,10.97
2018-12-13T09:21:55.306Z,10.30
2018-12-13T09:23:57.251Z,11.57
2018-12-13T09:25:59.263Z,9.70
2018-12-13T09:28:01.221Z,9.47
2018-12-13T09:30:03.335Z,9.00
2018-12-13T09:32:05.272Z,9.87
2018-12-13T09:34:07.228Z,8.27
2018-12-13T09:36:09.195Z,8.03
2018-12-13T09:38:11.163Z,8.57
2018-12-13T09:40:13.119Z,8.70
2018-12-13T09:42:15.075Z,8.87
2018-12-13T09:44:17.023Z,9.90
2018-12-13T09:46:18.970Z,8.30
2018-12-13T09:48:20.926Z,8.57
2018-12-13T09:50:22.882Z,8.70
2018-12-13T09:52:24.856Z,9.70
2018-12-13T09:54:26.911Z,9.20
2018-12-13T09:56:28.863Z,8.40
2018-12-13T09:58:30.927Z,7.53
2018-12-13T10:00:32.879Z,8.10
2018-12-13T10:02:34.829Z,7.73
2018-12-13T10:04:36.886Z,8.00
2018-12-13T10:06:38.831Z,8.07
2018-12-13T10:08:46.119Z,8.00
2018-12-13T10:10:44.747Z,8.13
2018-12-13T10:12:46.702Z,8.33
2018-12-13T10:14:48.667Z,8.07
2018-12-13T10:16:50.623Z,8.23
2018-12-13T10:18:52.774Z,7.73
2018-12-13T10:20:54.718Z,8.17
2018-12-13T10:22:56.683Z,8.23
2018-12-13T10:24:58.635Z,9.03
2018-12-13T10:27:00.603Z,8.03
2018-12-13T10:29:02.563Z,8.07
2018-12-13T10:31:04.544Z,7.10
2018-12-13T10:33:06.495Z,7.87
2018-12-13T10:35:11.379Z,7.60
2018-12-13T10:37:12.399Z,7.70
2018-12-13T10:39:14.350Z,8.37
2018-12-13T10:41:16.299Z,8.03
2018-12-13T10:43:18.346Z,7.90
2018-12-13T10:45:20.290Z,7.37
2018-12-13T10:47:22.242Z,7.20
2018-12-13T10:49:24.202Z,7.90
2018-12-13T10:51:26.151Z,7.80
2018-12-13T10:53:28.114Z,8.27
2018-12-13T10:55:30.071Z,9.00
2018-12-13T10:57:32.026Z,7.67
2018-12-13T10:59:33.985Z,8.20
2018-12-13T11:01:40.172Z,8.30
2018-12-13T11:03:42.139Z,7.90
2018-12-13T11:05:44.082Z,6.00
2018-12-13T11:07:46.030Z,6.33
2018-12-13T11:09:47.987Z,6.63
2018-12-13T11:11:49.929Z,10.33
2018-12-13T11:13:51.903Z,6.33
2018-12-13T11:15:53.885Z,5.90
2018-12-13T11:17:55.947Z,7.93
2018-12-13T11:19:57.904Z,6.03
2018-12-13T11:21:59.859Z,5.63
2018-12-13T11:24:01.814Z,6.63
2018-12-13T11:26:03.771Z,6.40
2018-12-13T11:28:17.730Z,5.70
2018-12-13T11:30:23.701Z,6.23
2018-12-13T11:32:25.655Z,6.47
2018-12-13T11:34:27.603Z,7.77
2018-12-13T11:36:29.550Z,7.30
2018-12-13T11:38:31.503Z,7.00
2018-12-13T11:40:33.461Z,6.70
2018-12-13T11:42:35.409Z,6.67
2018-12-13T11:44:37.562Z,6.93
2018-12-13T11:46:39.514Z,6.10
2018-12-13T11:48:41.470Z,5.60
2018-12-13T11:50:43.421Z,5.80
2018-12-13T11:52:45.379Z,6.27
2018-12-13T11:54:47.363Z,6.50
2018-12-13T11:56:49.335Z,6.73
2018-12-13T11:58:51.282Z,6.80
2018-12-13T12:00:53.230Z,6.57
2018-12-13T12:02:55.178Z,7.10
2018-12-13T12:04:57.130Z,7.43
2018-12-13T12:06:59.078Z,6.50
2018-12-13T12:09:01.019Z,6.87
2018-12-13T12:11:03.475Z,12.27
2018-12-13T12:13:05.406Z,11.30
2018-12-13T12:15:07.791Z,11.07
2018-12-13T12:17:09.780Z,10.00
2018-12-13T12:19:11.778Z,7.57
2018-12-13T12:21:13.738Z,12.67
2018-12-13T12:23:15.699Z,13.37
2018-12-13T12:25:17.708Z,8.40
2018-12-13T12:27:19.659Z,7.27
2018-12-13T12:29:21.613Z,11.10
2018-12-13T12:31:23.587Z,6.10
2018-12-13T12:33:25.556Z,10.23
2018-12-13T12:35:27.498Z,8.10
2018-12-13T12:37:29.462Z,12.50
2018-12-13T12:39:31.410Z,7.30
2018-12-13T12:41:34.456Z,7.53
2018-12-13T12:43:37.579Z,12.40
2018-12-13T12:45:40.606Z,9.00
2018-12-13T12:47:43.742Z,8.60
2018-12-13T12:49:47.236Z,16.77
2018-12-13T12:51:50.619Z,17.03
2018-12-13T12:53:53.920Z,9.63
2018-12-13T12:55:56.614Z,10.90
2018-12-13T12:57:59.657Z,10.87
2018-12-13T13:00:01.653Z,8.90
2018-12-13T13:02:03.643Z,7.93
2018-12-13T13:04:05.587Z,9.67
2018-12-13T13:06:07.542Z,7.53
2018-12-13T13:08:09.486Z,7.80
2018-12-13T13:10:11.463Z,8.87
2018-12-13T13:12:13.423Z,8.33
2018-12-13T13:14:15.372Z,8.97
2018-12-13T13:16:17.332Z,8.00
2018-12-13T13:18:19.280Z,6.77
2018-12-13T13:20:21.218Z,7.80
2018-12-13T13:22:23.179Z,17.53
2018-12-13T13:24:25.176Z,6.00
2018-12-13T13:26:27.218Z,8.00
2018-12-13T13:28:30.635Z,9.43
2018-12-13T13:30:32.679Z,6.53
2018-12-13T13:32:34.667Z,10.70
2018-12-13T13:34:36.618Z,6.10
2018-12-13T13:36:38.853Z,5.60
2018-12-13T13:38:40.982Z,14.23
2018-12-13T13:40:43.158Z,6.50
2018-12-13T13:42:45.222Z,5.80
2018-12-13T13:44:49.659Z,27.10
2018-12-13T13:46:52.851Z,16.60
2018-12-13T13:48:54.958Z,51.67
2018-12-13T13:50:57.034Z,38.40
2018-12-13T13:52:58.984Z,6.50
2018-12-13T13:55:01.044Z,13.97
2018-12-13T13:57:03.406Z,10.10
2018-12-13T13:59:05.487Z,11.50
2018-12-13T14:01:14.310Z,7.80
2018-12-13T14:03:16.568Z,10.57
2018-12-13T14:05:18.570Z,12.10
2018-12-13T14:07:20.583Z,7.47
2018-12-13T14:09:22.530Z,9.73
2018-12-13T14:11:25.360Z,9.70
2018-12-13T14:13:27.328Z,12.53
2018-12-13T14:15:29.284Z,15.80
2018-12-13T14:17:31.355Z,18.13
2018-12-13T14:19:33.309Z,11.73
2018-12-13T14:21:35.250Z,10.67
2018-12-13T14:23:37.214Z,7.97
2018-12-13T14:25:39.163Z,9.50
2018-12-13T14:27:42.019Z,12.33
2018-12-13T14:29:43.971Z,8.20
2018-12-13T14:31:45.923Z,7.40
2018-12-13T14:33:47.883Z,14.10
2018-12-13T14:35:49.826Z,12.33
2018-12-13T14:37:51.783Z,6.23
2018-12-13T14:39:53.755Z,6.87
2018-12-13T14:41:55.769Z,6.13
2018-12-13T14:43:57.782Z,6.30
2018-12-13T14:45:59.739Z,7.03
2018-12-13T14:48:01.832Z,6.33
2018-12-13T14:50:04.438Z,7.17
2018-12-13T14:52:06.382Z,7.10
2018-12-13T14:54:08.462Z,7.00
2018-12-13T14:56:10.411Z,8.67
2018-12-13T14:58:12.367Z,22.50
2018-12-13T15:00:14.327Z,9.07
2018-12-13T15:02:16.391Z,7.80
2018-12-13T15:04:18.348Z,7.50
2018-12-13T15:06:20.303Z,8.47
2018-12-13T15:08:22.262Z,8.53
2018-12-13T15:10:24.211Z,7.77
2018-12-13T15:12:26.183Z,7.77
2018-12-13T15:14:28.143Z,8.20
2018-12-13T15:16:30.094Z,7.80
2018-12-13T15:18:32.056Z,13.30
2018-12-13T15:20:34.022Z,9.93
2018-12-13T15:22:35.951Z,9.77
2018-12-13T15:24:37.927Z,16.83
2018-12-13T15:26:39.879Z,16.00
2018-12-13T15:28:41.835Z,10.13
2018-12-13T15:30:43.806Z,9.70
2018-12-13T15:32:45.751Z,9.20
2018-12-13T15:34:47.713Z,9.20
2018-12-13T15:36:49.658Z,11.03
2018-12-13T15:38:51.610Z,11.53
2018-12-13T15:40:53.567Z,8.93
2018-12-13T15:42:55.622Z,8.70
2018-12-13T15:44:57.726Z,8.60
2018-12-13T15:46:59.707Z,7.67
2018-12-13T15:49:01.682Z,7.90
2018-12-13T15:51:03.626Z,6.53
2018-12-13T15:53:05.570Z,7.50
2018-12-13T15:55:07.542Z,10.80
2018-12-13T15:57:09.494Z,10.87
2018-12-13T15:59:11.447Z,17.93
2018-12-13T16:01:13.384Z,19.73
2018-12-13T16:03:15.337Z,13.80
2018-12-13T16:05:17.295Z,17.60
2018-12-13T16:07:19.246Z,15.60
2018-12-13T16:09:21.198Z,16.70
2018-12-13T16:11:23.157Z,8.67
2018-12-13T16:13:25.118Z,7.40
2018-12-13T16:15:27.131Z,8.30
2018-12-13T16:17:29.078Z,7.20
2018-12-13T16:19:31.027Z,15.87
2018-12-13T16:21:32.998Z,8.80
2018-12-13T16:23:34.951Z,11.00
2018-12-13T16:25:36.903Z,10.80
2018-12-13T16:27:38.855Z,12.07
2018-12-13T16:29:40.808Z,8.47
2018-12-13T16:31:42.758Z,7.63
2018-12-13T16:33:44.716Z,9.90
2018-12-13T16:35:46.846Z,9.63
2018-12-13T16:37:48.802Z,13.07
2018-12-13T16:39:50.774Z,11.80
2018-12-13T16:41:52.746Z,11.73
2018-12-13T16:43:54.678Z,10.50
2018-12-13T16:45:56.640Z,9.30
2018-12-13T16:47:58.597Z,8.17
2018-12-13T16:50:00.554Z,11.77
2018-12-13T16:52:02.522Z,12.50
2018-12-13T16:54:04.476Z,10.50
2018-12-13T16:56:06.438Z,14.23
2018-12-13T16:58:08.394Z,14.30
2018-12-13T17:00:10.462Z,11.50
2018-12-13T17:02:12.420Z,8.87
2018-12-13T17:04:14.391Z,7.80
2018-12-13T17:06:16.346Z,9.33
2018-12-13T17:08:18.309Z,8.73
2018-12-13T17:10:20.265Z,7.63
2018-12-13T17:12:22.314Z,8.23
2018-12-13T17:14:24.307Z,8.50
2018-12-13T17:16:26.258Z,7.97
2018-12-13T17:18:28.198Z,8.73
2018-12-13T17:20:30.152Z,7.10
2018-12-13T17:22:32.082Z,9.70
2018-12-13T17:24:34.040Z,8.23
2018-12-13T17:26:35.999Z,8.27
2018-12-13T17:28:37.944Z,8.40
2018-12-13T17:30:39.914Z,8.73
2018-12-13T17:32:41.975Z,9.93
2018-12-13T17:34:43.922Z,10.37
2018-12-13T17:36:45.882Z,11.70
2018-12-13T17:38:47.842Z,16.83
2018-12-13T17:40:49.786Z,11.13
2018-12-13T17:42:51.932Z,10.33
2018-12-13T17:44:54.179Z,11.20
2018-12-13T17:46:56.200Z,11.13
2018-12-13T17:48:58.223Z,9.90
2018-12-13T17:51:00.184Z,11.43
2018-12-13T17:53:02.136Z,10.00
2018-12-13T17:55:04.218Z,9.73
2018-12-13T17:57:06.171Z,12.43
2018-12-13T17:59:08.139Z,12.33
2018-12-13T18:01:10.118Z,10.50
2018-12-13T18:03:12.079Z,17.37
2018-12-13T18:05:14.038Z,14.30
2018-12-13T18:07:16.019Z,12.30
2018-12-13T18:09:17.963Z,13.43
2018-12-13T18:11:19.919Z,19.20
2018-12-13T18:13:21.887Z,11.33
2018-12-13T18:15:23.898Z,11.53
2018-12-13T18:17:25.866Z,11.90
2018-12-13T18:19:27.811Z,11.87
2018-12-13T18:21:29.771Z,16.77
2018-12-13T18:23:31.731Z,12.43
2018-12-13T18:25:33.806Z,12.23
2018-12-13T18:27:35.763Z,14.90
2018-12-13T18:29:37.710Z,14.93
2018-12-13T18:31:39.976Z,12.78
2018-12-13T18:33:41.926Z,13.23
2018-12-13T18:35:44.006Z,12.00
2018-12-13T18:37:45.967Z,12.30
2018-12-13T18:39:47.923Z,10.20
2018-12-13T18:41:49.878Z,12.03
2018-12-13T18:43:51.827Z,25.53
2018-12-13T18:45:53.791Z,16.03
2018-12-13T18:47:55.739Z,19.00
2018-12-13T18:49:57.690Z,28.10
2018-12-13T18:51:59.674Z,13.60
2018-12-13T18:54:01.618Z,15.60
2018-12-13T18:56:03.603Z,15.30
2018-12-13T18:58:05.552Z,14.47
2018-12-13T19:00:07.919Z,13.87
2018-12-13T19:02:09.875Z,13.60
2018-12-13T19:04:11.857Z,13.97
2018-12-13T19:06:13.798Z,19.37
2018-12-13T19:08:15.979Z,22.93
2018-12-13T19:10:17.930Z,29.50
2018-12-13T19:12:19.887Z,28.20
2018-12-13T19:14:21.843Z,20.30
2018-12-13T19:16:23.787Z,30.30
2018-12-13T19:18:25.762Z,37.75
2018-12-13T19:20:27.705Z,24.30
2018-12-13T19:22:29.656Z,17.03
2018-12-13T19:24:31.598Z,15.00
2018-12-13T19:26:33.567Z,16.37
2018-12-13T19:28:35.527Z,15.20
2018-12-13T19:30:37.581Z,32.83
2018-12-13T19:32:39.655Z,20.53
2018-12-13T19:34:41.605Z,39.73
2018-12-13T19:36:43.560Z,24.27
2018-12-13T19:38:45.507Z,18.33
2018-12-13T19:40:48.526Z,25.92
2018-12-13T19:42:50.651Z,21.80
2018-12-13T19:44:52.609Z,20.60
2018-12-13T19:46:54.575Z,21.17
2018-12-13T19:48:56.538Z,24.93
2018-12-13T19:50:59.019Z,20.50
2018-12-13T19:53:02.211Z,21.20
2018-12-13T19:55:05.107Z,30.17
2018-12-13T19:57:07.061Z,30.53
2018-12-13T19:59:09.030Z,23.97
2018-12-13T20:01:10.987Z,31.60
2018-12-13T20:03:12.959Z,28.33
2018-12-13T20:05:14.943Z,35.37
2018-12-13T20:07:16.915Z,38.17
2018-12-13T20:09:18.882Z,20.43
2018-12-13T20:11:20.843Z,15.95
2018-12-13T20:13:22.857Z,27.97
2018-12-13T20:15:25.005Z,19.30
2018-12-13T20:17:26.959Z,22.40
2018-12-13T20:19:28.907Z,22.90
2018-12-13T20:21:30.858Z,48.97
2018-12-13T20:23:32.818Z,31.37
2018-12-13T20:25:34.854Z,17.17
2018-12-13T20:27:36.904Z,19.63
2018-12-13T20:29:39.279Z,23.70
2018-12-13T20:31:41.218Z,19.00
2018-12-13T20:33:43.255Z,24.70
2018-12-13T20:35:45.210Z,21.60
2018-12-13T20:37:47.174Z,31.10
2018-12-13T20:39:49.193Z,28.00
2018-12-13T20:41:51.499Z,23.80
2018-12-13T20:43:53.535Z,20.93
2018-12-13T20:45:55.478Z,33.90
2018-12-13T20:47:57.451Z,18.97
2018-12-13T20:49:59.485Z,14.85
2018-12-13T20:52:01.442Z,20.70
2018-12-13T20:54:03.527Z,21.40
2018-12-13T20:56:05.484Z,34.10
2018-12-13T20:58:07.594Z,20.03
2018-12-13T21:00:10.355Z,20.20
2018-12-13T21:02:12.316Z,15.80
2018-12-13T21:04:14.269Z,16.37
2018-12-13T21:06:16.222Z,16.73
2018-12-13T21:08:18.175Z,15.50
2018-12-13T21:10:20.162Z,15.80
2018-12-13T21:12:22.523Z,16.10
2018-12-13T21:14:24.483Z,14.55
2018-12-13T21:16:26.443Z,18.40
2018-12-13T21:18:28.398Z,16.40
2018-12-13T21:20:30.446Z,15.20
2018-12-13T21:22:32.459Z,18.30
2018-12-13T21:24:34.414Z,15.60
2018-12-13T21:26:36.359Z,18.93
2018-12-13T21:28:38.430Z,16.80
2018-12-13T21:30:40.388Z,17.13
2018-12-13T21:32:42.335Z,16.00
2018-12-13T21:34:44.283Z,17.30
2018-12-13T21:36:46.231Z,15.10
2018-12-13T21:38:48.191Z,15.77
2018-12-13T21:40:50.150Z,22.77
2018-12-13T21:42:52.095Z,17.20
2018-12-13T21:44:54.049Z,16.60
2018-12-13T21:46:55.990Z,15.27
2018-12-13T21:48:57.931Z,17.10
2018-12-13T21:50:59.903Z,16.40
2018-12-13T21:53:01.974Z,16.60
2018-12-13T21:55:03.926Z,17.23
2018-12-13T21:57:06.014Z,15.40
2018-12-13T21:59:07.967Z,15.37
2018-12-13T22:01:09.918Z,15.80
2018-12-13T22:03:11.859Z,19.90
2018-12-13T22:05:13.814Z,16.67
2018-12-13T22:07:15.758Z,15.43
2018-12-13T22:09:17.721Z,15.33
2018-12-13T22:11:20.847Z,15.43
2018-12-13T22:13:24.962Z,15.77
2018-12-13T22:15:26.922Z,16.63
2018-12-13T22:17:28.889Z,18.50
2018-12-13T22:19:30.935Z,16.43
2018-12-13T22:21:32.902Z,15.75
2018-12-13T22:23:34.863Z,16.60
2018-12-13T22:25:36.819Z,15.50
2018-12-13T22:27:38.831Z,14.60
2018-12-13T22:29:40.778Z,13.27
2018-12-13T22:31:42.926Z,13.17
2018-12-13T22:33:44.874Z,11.07
2018-12-13T22:35:47.408Z,11.53
2018-12-13T22:37:49.383Z,10.27
2018-12-13T22:39:51.334Z,11.60
2018-12-13T22:41:53.294Z,13.70
2018-12-13T22:43:55.265Z,12.27
2018-12-13T22:46:02.079Z,13.40
2018-12-13T22:48:04.026Z,13.20
2018-12-13T22:50:05.990Z,17.13
2018-12-13T22:52:07.955Z,15.10
2018-12-13T22:54:10.443Z,14.07
2018-12-13T22:56:12.408Z,14.65
2018-12-13T22:58:14.367Z,15.30
2018-12-13T23:00:16.446Z,15.97
2018-12-13T23:02:18.447Z,15.50
2018-12-13T23:04:20.511Z,16.73
2018-12-13T23:06:22.490Z,17.40
2018-12-13T23:08:24.446Z,17.37
2018-12-13T23:10:26.426Z,16.00
2018-12-13T23:12:28.394Z,15.72
2018-12-13T23:14:30.513Z,17.93
2018-12-13T23:16:32.526Z,17.30
2018-12-13T23:18:34.507Z,17.42
2018-12-13T23:20:36.462Z,18.32
2018-12-13T23:22:38.436Z,18.17
2018-12-13T23:24:40.414Z,18.73
2018-12-13T23:26:42.434Z,18.60
2018-12-13T23:28:44.399Z,19.50
2018-12-13T23:30:46.369Z,19.10
2018-12-13T23:32:48.319Z,19.80
2018-12-13T23:34:50.315Z,20.07
2018-12-13T23:36:52.650Z,20.50
2018-12-13T23:38:54.611Z,19.73
2018-12-13T23:40:56.558Z,20.90
2018-12-13T23:42:58.523Z,21.40
2018-12-13T23:45:00.483Z,21.25
2018-12-13T23:47:02.459Z,20.60
2018-12-13T23:49:04.412Z,21.27
2018-12-13T23:51:06.403Z,21.47
2018-12-13T23:53:08.358Z,19.77
2018-12-13T23:55:10.307Z,22.40
2018-12-13T23:57:12.262Z,19.67
2018-12-13T23:59:14.215Z,20.47
